Portada
METAR-TAF:

METAR-TAF

Aeroports :

Logan County Airport

Lincoln, Illinois, Estats Units d'Amèrica

latitud: 40-09-31N, longitud: 089-20-06W, altitud: 182 m

Observació

L'informe es va fer fa 27 minuts, a les 14:55 UTC
Vent 7 kt del Nord
Temperatura 0°C
Humitat 86%
Pressió 1024 hPa
Visibilitat: 16.1 km
Cel cobert a una alçada de 1200 ft

METAR: KAAA 221455Z AUTO 01007KT 10SM OVC012 00/M02 A3023 RMK AO2 T00001018

Hora: 09:22 (15:22 UTC)


TAF: manca

Observacions i pronòstics meteorològics de més de 4000 aeroports (METAR i TAF).

Les estacions disponibles són els punts grocs i vermells al mapa.

Posi el ratolí al punt desitjat per veure el nom de l'estació.

Feu clic per veure les observacions i els pronòstics meteorològics.

Per canviar el mapa: feu clic els botons verds amb una creu de color negre per apropar; al botó verd amb un guió per allunyar la imatge; o en les fletxes verdes per a mapes adjacents.


METAR-TAF: